sensor_id;sensor_type;location;lat;lon;timestamp;P1;durP1;ratioP1;P2;durP2;ratioP2
63714;SDS011;49858;48.956;9.076;2023-08-06T00:09:38;5.35;;;3.08;;
63714;SDS011;49858;48.956;9.076;2023-08-06T00:36:36;4.53;;;3.13;;
63714;SDS011;49858;48.956;9.076;2023-08-06T00:40:14;6.88;;;3.80;;
63714;SDS011;49858;48.956;9.076;2023-08-06T00:43:26;6.35;;;3.80;;
63714;SDS011;49858;48.956;9.076;2023-08-06T00:46:35;7.70;;;3.58;;
63714;SDS011;49858;48.956;9.076;2023-08-06T00:49:47;8.65;;;5.30;;
63714;SDS011;49858;48.956;9.076;2023-08-06T00:52:45;8.55;;;4.50;;
63714;SDS011;49858;48.956;9.076;2023-08-06T00:59:05;6.93;;;3.92;;
63714;SDS011;49858;48.956;9.076;2023-08-06T01:02:38;8.02;;;5.18;;
63714;SDS011;49858;48.956;9.076;2023-08-06T01:06:23;9.68;;;4.95;;
63714;SDS011;49858;48.956;9.076;2023-08-06T01:09:38;9.50;;;5.20;;
63714;SDS011;49858;48.956;9.076;2023-08-06T01:12:34;8.48;;;4.55;;
63714;SDS011;49858;48.956;9.076;2023-08-06T01:15:44;7.40;;;4.22;;
63714;SDS011;49858;48.956;9.076;2023-08-06T01:22:53;8.07;;;4.30;;
63714;SDS011;49858;48.956;9.076;2023-08-06T01:25:35;9.40;;;4.15;;
63714;SDS011;49858;48.956;9.076;2023-08-06T01:28:39;7.22;;;4.78;;
63714;SDS011;49858;48.956;9.076;2023-08-06T01:31:27;10.38;;;4.70;;
63714;SDS011;49858;48.956;9.076;2023-08-06T01:34:05;9.90;;;4.38;;
63714;SDS011;49858;48.956;9.076;2023-08-06T01:36:50;9.38;;;4.90;;
63714;SDS011;49858;48.956;9.076;2023-08-06T01:39:25;8.82;;;4.85;;
63714;SDS011;49858;48.956;9.076;2023-08-06T01:42:03;10.52;;;5.50;;
63714;SDS011;49858;48.956;9.076;2023-08-06T01:44:31;8.80;;;4.43;;
63714;SDS011;49858;48.956;9.076;2023-08-06T01:47:08;9.68;;;5.38;;
63714;SDS011;49858;48.956;9.076;2023-08-06T01:49:44;7.13;;;3.92;;
63714;SDS011;49858;48.956;9.076;2023-08-06T01:52:16;11.98;;;5.38;;
63714;SDS011;49858;48.956;9.076;2023-08-06T01:54:45;8.73;;;4.45;;
63714;SDS011;49858;48.956;9.076;2023-08-06T01:57:14;8.13;;;4.28;;
63714;SDS011;49858;48.956;9.076;2023-08-06T01:59:42;4.65;;;3.10;;
63714;SDS011;49858;48.956;9.076;2023-08-06T02:02:10;7.20;;;3.58;;
63714;SDS011;49858;48.956;9.076;2023-08-06T02:04:38;11.45;;;4.32;;
63714;SDS011;49858;48.956;9.076;2023-08-06T02:07:05;6.03;;;3.85;;
63714;SDS011;49858;48.956;9.076;2023-08-06T02:09:34;5.80;;;3.90;;
63714;SDS011;49858;48.956;9.076;2023-08-06T02:12:03;6.78;;;3.90;;
63714;SDS011;49858;48.956;9.076;2023-08-06T02:14:32;7.60;;;3.35;;
63714;SDS011;49858;48.956;9.076;2023-08-06T02:17:00;6.95;;;3.63;;
63714;SDS011;49858;48.956;9.076;2023-08-06T02:19:28;6.30;;;3.30;;
63714;SDS011;49858;48.956;9.076;2023-08-06T02:21:58;5.43;;;3.28;;
63714;SDS011;49858;48.956;9.076;2023-08-06T02:24:26;7.55;;;4.10;;
63714;SDS011;49858;48.956;9.076;2023-08-06T02:26:53;6.38;;;3.42;;
63714;SDS011;49858;48.956;9.076;2023-08-06T02:29:24;4.60;;;3.13;;
63714;SDS011;49858;48.956;9.076;2023-08-06T02:31:53;6.43;;;3.00;;
63714;SDS011;49858;48.956;9.076;2023-08-06T02:34:22;7.05;;;2.97;;
63714;SDS011;49858;48.956;9.076;2023-08-06T02:36:51;6.65;;;4.10;;
63714;SDS011;49858;48.956;9.076;2023-08-06T02:39:18;5.85;;;3.72;;
63714;SDS011;49858;48.956;9.076;2023-08-06T02:41:46;4.80;;;3.10;;
63714;SDS011;49858;48.956;9.076;2023-08-06T02:44:16;5.65;;;2.85;;
63714;SDS011;49858;48.956;9.076;2023-08-06T02:46:45;5.30;;;2.60;;
63714;SDS011;49858;48.956;9.076;2023-08-06T02:49:13;4.45;;;2.97;;
63714;SDS011;49858;48.956;9.076;2023-08-06T02:51:41;5.18;;;3.00;;
63714;SDS011;49858;48.956;9.076;2023-08-06T02:54:10;3.72;;;2.55;;
63714;SDS011;49858;48.956;9.076;2023-08-06T02:56:38;3.03;;;1.83;;
63714;SDS011;49858;48.956;9.076;2023-08-06T02:59:13;4.70;;;2.70;;
63714;SDS011;49858;48.956;9.076;2023-08-06T03:01:50;6.07;;;2.28;;
63714;SDS011;49858;48.956;9.076;2023-08-06T03:04:27;4.95;;;2.72;;
63714;SDS011;49858;48.956;9.076;2023-08-06T03:06:55;5.32;;;3.70;;
63714;SDS011;49858;48.956;9.076;2023-08-06T03:09:29;4.93;;;3.78;;
63714;SDS011;49858;48.956;9.076;2023-08-06T03:11:58;6.50;;;3.88;;
63714;SDS011;49858;48.956;9.076;2023-08-06T03:14:25;7.43;;;3.38;;
63714;SDS011;49858;48.956;9.076;2023-08-06T03:16:55;6.25;;;3.05;;
63714;SDS011;49858;48.956;9.076;2023-08-06T03:19:23;6.78;;;4.40;;
63714;SDS011;49858;48.956;9.076;2023-08-06T03:21:51;5.13;;;3.55;;
63714;SDS011;49858;48.956;9.076;2023-08-06T03:24:20;6.00;;;3.25;;
63714;SDS011;49858;48.956;9.076;2023-08-06T03:26:48;6.20;;;2.80;;
63714;SDS011;49858;48.956;9.076;2023-08-06T03:29:16;4.93;;;2.85;;
63714;SDS011;49858;48.956;9.076;2023-08-06T03:31:45;4.88;;;2.35;;
63714;SDS011;49858;48.956;9.076;2023-08-06T03:34:16;5.25;;;2.30;;
63714;SDS011;49858;48.956;9.076;2023-08-06T03:36:45;3.25;;;2.33;;
63714;SDS011;49858;48.956;9.076;2023-08-06T03:39:13;4.40;;;2.28;;
63714;SDS011;49858;48.956;9.076;2023-08-06T03:41:41;5.05;;;2.20;;
63714;SDS011;49858;48.956;9.076;2023-08-06T03:44:09;3.25;;;1.80;;
63714;SDS011;49858;48.956;9.076;2023-08-06T03:46:37;2.80;;;1.65;;
63714;SDS011;49858;48.956;9.076;2023-08-06T03:49:07;3.53;;;2.00;;
63714;SDS011;49858;48.956;9.076;2023-08-06T03:51:36;3.17;;;1.80;;
63714;SDS011;49858;48.956;9.076;2023-08-06T03:54:04;3.10;;;2.17;;
63714;SDS011;49858;48.956;9.076;2023-08-06T03:56:32;3.35;;;1.50;;
63714;SDS011;49858;48.956;9.076;2023-08-06T03:59:00;4.65;;;1.60;;
63714;SDS011;49858;48.956;9.076;2023-08-06T04:01:28;4.40;;;2.03;;
63714;SDS011;49858;48.956;9.076;2023-08-06T04:03:56;2.45;;;1.58;;
63714;SDS011;49858;48.956;9.076;2023-08-06T04:06:24;3.08;;;1.92;;
63714;SDS011;49858;48.956;9.076;2023-08-06T04:08:53;3.90;;;1.70;;
63714;SDS011;49858;48.956;9.076;2023-08-06T04:11:21;4.18;;;1.88;;
63714;SDS011;49858;48.956;9.076;2023-08-06T04:13:53;2.78;;;1.42;;
63714;SDS011;49858;48.956;9.076;2023-08-06T04:16:23;4.28;;;2.17;;
63714;SDS011;49858;48.956;9.076;2023-08-06T04:18:52;1.63;;;0.82;;
63714;SDS011;49858;48.956;9.076;2023-08-06T04:21:21;2.08;;;0.95;;
63714;SDS011;49858;48.956;9.076;2023-08-06T04:23:49;2.95;;;0.90;;
63714;SDS011;49858;48.956;9.076;2023-08-06T04:26:19;3.60;;;1.45;;
63714;SDS011;49858;48.956;9.076;2023-08-06T04:28:47;2.88;;;1.08;;
63714;SDS011;49858;48.956;9.076;2023-08-06T04:31:16;3.47;;;1.40;;
63714;SDS011;49858;48.956;9.076;2023-08-06T04:33:44;1.95;;;0.90;;
63714;SDS011;49858;48.956;9.076;2023-08-06T04:36:15;3.60;;;1.63;;
63714;SDS011;49858;48.956;9.076;2023-08-06T04:38:44;2.85;;;1.23;;
63714;SDS011;49858;48.956;9.076;2023-08-06T04:41:14;2.72;;;1.00;;
63714;SDS011;49858;48.956;9.076;2023-08-06T04:43:44;0.80;;;0.55;;
63714;SDS011;49858;48.956;9.076;2023-08-06T04:46:12;2.38;;;0.70;;
63714;SDS011;49858;48.956;9.076;2023-08-06T04:48:40;0.80;;;0.70;;
63714;SDS011;49858;48.956;9.076;2023-08-06T04:51:07;0.60;;;0.60;;
63714;SDS011;49858;48.956;9.076;2023-08-06T04:53:35;2.22;;;0.50;;
63714;SDS011;49858;48.956;9.076;2023-08-06T04:56:04;1.20;;;0.70;;
63714;SDS011;49858;48.956;9.076;2023-08-06T04:58:31;1.25;;;0.70;;
63714;SDS011;49858;48.956;9.076;2023-08-06T05:01:01;3.72;;;0.98;;
63714;SDS011;49858;48.956;9.076;2023-08-06T05:03:29;3.08;;;1.30;;
63714;SDS011;49858;48.956;9.076;2023-08-06T05:05:57;1.90;;;0.40;;
63714;SDS011;49858;48.956;9.076;2023-08-06T05:08:25;0.20;;;0.20;;
63714;SDS011;49858;48.956;9.076;2023-08-06T05:10:53;1.98;;;0.73;;
63714;SDS011;49858;48.956;9.076;2023-08-06T05:13:20;0.68;;;0.55;;
63714;SDS011;49858;48.956;9.076;2023-08-06T05:15:48;2.65;;;0.60;;
63714;SDS011;49858;48.956;9.076;2023-08-06T05:18:20;2.83;;;0.55;;
63714;SDS011;49858;48.956;9.076;2023-08-06T05:20:48;0.55;;;0.40;;
63714;SDS011;49858;48.956;9.076;2023-08-06T05:23:17;2.00;;;0.75;;
63714;SDS011;49858;48.956;9.076;2023-08-06T05:25:44;1.08;;;0.70;;
63714;SDS011;49858;48.956;9.076;2023-08-06T05:28:12;0.25;;;0.25;;
63714;SDS011;49858;48.956;9.076;2023-08-06T05:30:41;0.30;;;0.30;;
63714;SDS011;49858;48.956;9.076;2023-08-06T05:33:09;1.35;;;0.30;;
63714;SDS011;49858;48.956;9.076;2023-08-06T05:35:38;0.25;;;0.20;;
63714;SDS011;49858;48.956;9.076;2023-08-06T05:38:08;6.47;;;0.95;;
63714;SDS011;49858;48.956;9.076;2023-08-06T05:40:36;0.43;;;0.40;;
63714;SDS011;49858;48.956;9.076;2023-08-06T05:43:03;1.05;;;0.32;;
63714;SDS011;49858;48.956;9.076;2023-08-06T05:45:31;0.40;;;0.40;;
63714;SDS011;49858;48.956;9.076;2023-08-06T05:47:59;0.82;;;0.73;;
63714;SDS011;49858;48.956;9.076;2023-08-06T05:50:27;1.60;;;0.65;;
63714;SDS011;49858;48.956;9.076;2023-08-06T05:52:57;0.85;;;0.40;;
63714;SDS011;49858;48.956;9.076;2023-08-06T05:55:27;0.40;;;0.40;;
63714;SDS011;49858;48.956;9.076;2023-08-06T05:57:55;8.70;;;1.05;;
63714;SDS011;49858;48.956;9.076;2023-08-06T06:00:23;0.50;;;0.45;;
63714;SDS011;49858;48.956;9.076;2023-08-06T06:02:51;0.82;;;0.60;;
63714;SDS011;49858;48.956;9.076;2023-08-06T06:05:19;2.35;;;0.52;;
63714;SDS011;49858;48.956;9.076;2023-08-06T06:07:47;0.20;;;0.20;;
63714;SDS011;49858;48.956;9.076;2023-08-06T06:10:16;0.82;;;0.52;;
63714;SDS011;49858;48.956;9.076;2023-08-06T06:12:44;0.57;;;0.50;;
63714;SDS011;49858;48.956;9.076;2023-08-06T06:15:12;0.73;;;0.40;;
63714;SDS011;49858;48.956;9.076;2023-08-06T06:17:40;0.65;;;0.45;;
63714;SDS011;49858;48.956;9.076;2023-08-06T06:20:08;0.68;;;0.52;;
63714;SDS011;49858;48.956;9.076;2023-08-06T06:22:36;1.67;;;0.60;;
63714;SDS011;49858;48.956;9.076;2023-08-06T06:25:04;2.15;;;0.93;;
63714;SDS011;49858;48.956;9.076;2023-08-06T06:27:37;4.38;;;0.75;;
63714;SDS011;49858;48.956;9.076;2023-08-06T06:30:05;1.30;;;0.63;;
63714;SDS011;49858;48.956;9.076;2023-08-06T06:32:34;2.25;;;0.52;;
63714;SDS011;49858;48.956;9.076;2023-08-06T06:35:02;1.67;;;0.60;;
63714;SDS011;49858;48.956;9.076;2023-08-06T06:37:31;1.35;;;0.60;;
63714;SDS011;49858;48.956;9.076;2023-08-06T06:39:59;1.55;;;0.77;;
63714;SDS011;49858;48.956;9.076;2023-08-06T06:42:28;1.27;;;0.60;;
63714;SDS011;49858;48.956;9.076;2023-08-06T06:45:01;1.10;;;0.60;;
63714;SDS011;49858;48.956;9.076;2023-08-06T06:47:29;0.40;;;0.40;;
63714;SDS011;49858;48.956;9.076;2023-08-06T06:49:57;0.47;;;0.47;;
63714;SDS011;49858;48.956;9.076;2023-08-06T06:52:24;2.92;;;0.40;;
63714;SDS011;49858;48.956;9.076;2023-08-06T06:54:52;0.95;;;0.30;;
63714;SDS011;49858;48.956;9.076;2023-08-06T06:57:20;0.63;;;0.30;;
63714;SDS011;49858;48.956;9.076;2023-08-06T06:59:48;0.35;;;0.28;;
63714;SDS011;49858;48.956;9.076;2023-08-06T07:02:17;0.45;;;0.40;;
63714;SDS011;49858;48.956;9.076;2023-08-06T07:04:45;1.38;;;0.40;;
63714;SDS011;49858;48.956;9.076;2023-08-06T07:07:13;0.50;;;0.28;;
63714;SDS011;49858;48.956;9.076;2023-08-06T07:09:41;0.43;;;0.35;;
63714;SDS011;49858;48.956;9.076;2023-08-06T07:12:09;0.38;;;0.32;;
63714;SDS011;49858;48.956;9.076;2023-08-06T07:14:37;2.28;;;0.40;;
63714;SDS011;49858;48.956;9.076;2023-08-06T07:17:10;8.82;;;0.65;;
63714;SDS011;49858;48.956;9.076;2023-08-06T07:19:39;10.00;;;0.60;;
63714;SDS011;49858;48.956;9.076;2023-08-06T07:22:07;0.60;;;0.30;;
63714;SDS011;49858;48.956;9.076;2023-08-06T07:24:37;0.20;;;0.20;;
63714;SDS011;49858;48.956;9.076;2023-08-06T07:27:05;0.45;;;0.30;;
63714;SDS011;49858;48.956;9.076;2023-08-06T07:29:33;0.55;;;0.47;;
63714;SDS011;49858;48.956;9.076;2023-08-06T07:32:01;2.72;;;0.40;;
63714;SDS011;49858;48.956;9.076;2023-08-06T07:34:30;5.32;;;1.20;;
63714;SDS011;49858;48.956;9.076;2023-08-06T07:37:00;0.30;;;0.30;;
63714;SDS011;49858;48.956;9.076;2023-08-06T07:39:28;0.30;;;0.30;;
63714;SDS011;49858;48.956;9.076;2023-08-06T07:41:56;0.80;;;0.57;;
63714;SDS011;49858;48.956;9.076;2023-08-06T07:44:24;0.30;;;0.30;;
63714;SDS011;49858;48.956;9.076;2023-08-06T07:46:52;0.25;;;0.25;;
63714;SDS011;49858;48.956;9.076;2023-08-06T07:49:19;0.75;;;0.50;;
63714;SDS011;49858;48.956;9.076;2023-08-06T07:51:47;0.52;;;0.32;;
63714;SDS011;49858;48.956;9.076;2023-08-06T07:54:17;0.20;;;0.20;;
63714;SDS011;49858;48.956;9.076;2023-08-06T07:56:44;0.47;;;0.32;;
63714;SDS011;49858;48.956;9.076;2023-08-06T07:59:12;0.68;;;0.40;;
63714;SDS011;49858;48.956;9.076;2023-08-06T08:01:40;0.20;;;0.20;;
63714;SDS011;49858;48.956;9.076;2023-08-06T08:04:08;0.65;;;0.30;;
63714;SDS011;49858;48.956;9.076;2023-08-06T08:06:36;0.20;;;0.20;;
63714;SDS011;49858;48.956;9.076;2023-08-06T08:09:04;1.38;;;0.20;;
63714;SDS011;49858;48.956;9.076;2023-08-06T08:11:33;0.20;;;0.20;;
63714;SDS011;49858;48.956;9.076;2023-08-06T08:14:01;0.20;;;0.20;;
63714;SDS011;49858;48.956;9.076;2023-08-06T08:16:29;0.20;;;0.20;;
63714;SDS011;49858;48.956;9.076;2023-08-06T08:18:57;2.15;;;0.30;;
63714;SDS011;49858;48.956;9.076;2023-08-06T08:21:25;0.30;;;0.20;;
63714;SDS011;49858;48.956;9.076;2023-08-06T08:23:53;0.30;;;0.20;;
63714;SDS011;49858;48.956;9.076;2023-08-06T08:26:20;0.20;;;0.20;;
63714;SDS011;49858;48.956;9.076;2023-08-06T08:28:52;0.57;;;0.32;;
63714;SDS011;49858;48.956;9.076;2023-08-06T08:31:20;2.95;;;0.20;;
63714;SDS011;49858;48.956;9.076;2023-08-06T08:33:47;0.20;;;0.20;;
63714;SDS011;49858;48.956;9.076;2023-08-06T08:36:18;0.20;;;0.20;;
63714;SDS011;49858;48.956;9.076;2023-08-06T08:38:49;0.20;;;0.20;;
63714;SDS011;49858;48.956;9.076;2023-08-06T08:41:20;0.20;;;0.20;;
63714;SDS011;49858;48.956;9.076;2023-08-06T08:43:48;0.20;;;0.20;;
63714;SDS011;49858;48.956;9.076;2023-08-06T08:46:19;0.20;;;0.20;;
63714;SDS011;49858;48.956;9.076;2023-08-06T08:48:47;0.28;;;0.20;;
63714;SDS011;49858;48.956;9.076;2023-08-06T08:51:15;0.20;;;0.20;;
63714;SDS011;49858;48.956;9.076;2023-08-06T08:53:44;0.45;;;0.20;;
63714;SDS011;49858;48.956;9.076;2023-08-06T08:56:14;0.20;;;0.20;;
63714;SDS011;49858;48.956;9.076;2023-08-06T08:58:43;0.20;;;0.20;;
63714;SDS011;49858;48.956;9.076;2023-08-06T09:01:12;0.30;;;0.30;;
63714;SDS011;49858;48.956;9.076;2023-08-06T09:03:42;0.20;;;0.20;;
63714;SDS011;49858;48.956;9.076;2023-08-06T09:06:16;0.30;;;0.30;;
63714;SDS011;49858;48.956;9.076;2023-08-06T09:08:47;0.10;;;0.10;;
63714;SDS011;49858;48.956;9.076;2023-08-06T09:11:21;0.20;;;0.20;;
63714;SDS011;49858;48.956;9.076;2023-08-06T09:13:58;0.20;;;0.20;;
63714;SDS011;49858;48.956;9.076;2023-08-06T09:16:34;0.30;;;0.20;;
63714;SDS011;49858;48.956;9.076;2023-08-06T09:22:39;0.20;;;0.20;;
63714;SDS011;49858;48.956;9.076;2023-08-06T09:25:10;0.52;;;0.30;;
63714;SDS011;49858;48.956;9.076;2023-08-06T09:27:41;0.95;;;0.30;;
63714;SDS011;49858;48.956;9.076;2023-08-06T09:30:14;0.20;;;0.20;;
63714;SDS011;49858;48.956;9.076;2023-08-06T09:32:57;2.30;;;0.30;;
63714;SDS011;49858;48.956;9.076;2023-08-06T09:35:27;0.28;;;0.28;;
63714;SDS011;49858;48.956;9.076;2023-08-06T09:37:55;0.68;;;0.40;;
63714;SDS011;49858;48.956;9.076;2023-08-06T09:40:27;0.50;;;0.30;;
63714;SDS011;49858;48.956;9.076;2023-08-06T09:42:56;0.85;;;0.35;;
63714;SDS011;49858;48.956;9.076;2023-08-06T09:45:28;2.28;;;0.43;;
63714;SDS011;49858;48.956;9.076;2023-08-06T09:47:58;0.22;;;0.22;;
63714;SDS011;49858;48.956;9.076;2023-08-06T09:50:29;0.20;;;0.20;;
63714;SDS011;49858;48.956;9.076;2023-08-06T09:52:58;0.20;;;0.20;;
63714;SDS011;49858;48.956;9.076;2023-08-06T09:55:27;0.20;;;0.20;;
63714;SDS011;49858;48.956;9.076;2023-08-06T09:57:55;0.28;;;0.28;;
63714;SDS011;49858;48.956;9.076;2023-08-06T10:00:24;0.35;;;0.30;;
63714;SDS011;49858;48.956;9.076;2023-08-06T10:02:52;0.30;;;0.25;;
63714;SDS011;49858;48.956;9.076;2023-08-06T10:05:22;0.20;;;0.20;;
63714;SDS011;49858;48.956;9.076;2023-08-06T10:07:52;0.20;;;0.20;;
63714;SDS011;49858;48.956;9.076;2023-08-06T10:10:22;0.30;;;0.30;;
63714;SDS011;49858;48.956;9.076;2023-08-06T10:12:51;0.30;;;0.30;;
63714;SDS011;49858;48.956;9.076;2023-08-06T10:15:22;0.65;;;0.40;;
63714;SDS011;49858;48.956;9.076;2023-08-06T10:17:53;0.90;;;0.30;;
63714;SDS011;49858;48.956;9.076;2023-08-06T10:20:24;0.40;;;0.30;;
63714;SDS011;49858;48.956;9.076;2023-08-06T10:23:03;0.30;;;0.22;;
63714;SDS011;49858;48.956;9.076;2023-08-06T10:25:32;0.28;;;0.28;;
63714;SDS011;49858;48.956;9.076;2023-08-06T10:28:01;0.30;;;0.28;;
63714;SDS011;49858;48.956;9.076;2023-08-06T10:30:40;0.40;;;0.30;;
63714;SDS011;49858;48.956;9.076;2023-08-06T10:33:09;0.28;;;0.22;;
63714;SDS011;49858;48.956;9.076;2023-08-06T10:35:37;0.32;;;0.30;;
63714;SDS011;49858;48.956;9.076;2023-08-06T10:38:11;0.30;;;0.30;;
63714;SDS011;49858;48.956;9.076;2023-08-06T10:40:43;0.30;;;0.30;;
63714;SDS011;49858;48.956;9.076;2023-08-06T10:43:24;0.40;;;0.40;;
63714;SDS011;49858;48.956;9.076;2023-08-06T10:45:54;0.80;;;0.40;;
63714;SDS011;49858;48.956;9.076;2023-08-06T10:48:29;0.43;;;0.30;;
63714;SDS011;49858;48.956;9.076;2023-08-06T10:51:01;0.57;;;0.40;;
63714;SDS011;49858;48.956;9.076;2023-08-06T10:53:30;2.78;;;0.60;;
63714;SDS011;49858;48.956;9.076;2023-08-06T10:56:00;0.85;;;0.65;;
63714;SDS011;49858;48.956;9.076;2023-08-06T10:58:30;0.80;;;0.47;;
63714;SDS011;49858;48.956;9.076;2023-08-06T11:01:00;1.10;;;0.63;;
63714;SDS011;49858;48.956;9.076;2023-08-06T11:03:28;1.65;;;0.60;;
63714;SDS011;49858;48.956;9.076;2023-08-06T11:05:56;1.88;;;0.80;;
63714;SDS011;49858;48.956;9.076;2023-08-06T11:08:24;1.85;;;0.70;;
63714;SDS011;49858;48.956;9.076;2023-08-06T11:10:54;1.15;;;0.80;;
63714;SDS011;49858;48.956;9.076;2023-08-06T11:13:29;1.40;;;0.52;;
63714;SDS011;49858;48.956;9.076;2023-08-06T11:15:58;1.55;;;0.90;;
63714;SDS011;49858;48.956;9.076;2023-08-06T11:18:26;1.52;;;1.00;;
63714;SDS011;49858;48.956;9.076;2023-08-06T11:20:54;1.73;;;0.98;;
63714;SDS011;49858;48.956;9.076;2023-08-06T11:23:22;3.15;;;1.10;;
63714;SDS011;49858;48.956;9.076;2023-08-06T11:25:50;2.10;;;1.25;;
63714;SDS011;49858;48.956;9.076;2023-08-06T11:28:20;1.92;;;0.88;;
63714;SDS011;49858;48.956;9.076;2023-08-06T11:30:48;1.17;;;0.77;;
63714;SDS011;49858;48.956;9.076;2023-08-06T11:33:19;4.00;;;0.90;;
63714;SDS011;49858;48.956;9.076;2023-08-06T11:35:48;1.45;;;1.10;;
63714;SDS011;49858;48.956;9.076;2023-08-06T11:38:16;4.43;;;1.58;;
63714;SDS011;49858;48.956;9.076;2023-08-06T11:40:44;2.35;;;1.33;;
63714;SDS011;49858;48.956;9.076;2023-08-06T11:43:12;2.05;;;1.40;;
63714;SDS011;49858;48.956;9.076;2023-08-06T11:45:47;2.42;;;1.40;;
63714;SDS011;49858;48.956;9.076;2023-08-06T11:48:15;2.03;;;1.27;;
63714;SDS011;49858;48.956;9.076;2023-08-06T11:50:44;3.25;;;1.95;;
63714;SDS011;49858;48.956;9.076;2023-08-06T11:53:13;2.28;;;1.70;;
63714;SDS011;49858;48.956;9.076;2023-08-06T11:55:41;3.63;;;2.20;;
63714;SDS011;49858;48.956;9.076;2023-08-06T11:58:10;5.43;;;2.35;;
63714;SDS011;49858;48.956;9.076;2023-08-06T12:00:39;6.47;;;2.67;;
63714;SDS011;49858;48.956;9.076;2023-08-06T12:03:08;3.38;;;1.77;;
63714;SDS011;49858;48.956;9.076;2023-08-06T12:05:37;4.45;;;2.40;;
63714;SDS011;49858;48.956;9.076;2023-08-06T12:08:05;4.07;;;2.67;;
63714;SDS011;49858;48.956;9.076;2023-08-06T12:10:33;6.63;;;2.50;;
63714;SDS011;49858;48.956;9.076;2023-08-06T12:13:01;4.50;;;2.55;;
63714;SDS011;49858;48.956;9.076;2023-08-06T12:15:29;3.95;;;2.33;;
63714;SDS011;49858;48.956;9.076;2023-08-06T12:17:59;8.40;;;3.78;;
63714;SDS011;49858;48.956;9.076;2023-08-06T12:20:28;4.15;;;2.67;;
63714;SDS011;49858;48.956;9.076;2023-08-06T12:22:56;6.50;;;3.53;;
63714;SDS011;49858;48.956;9.076;2023-08-06T12:25:24;6.32;;;3.63;;
63714;SDS011;49858;48.956;9.076;2023-08-06T12:27:55;7.47;;;3.05;;
63714;SDS011;49858;48.956;9.076;2023-08-06T12:30:22;3.78;;;2.10;;
63714;SDS011;49858;48.956;9.076;2023-08-06T12:32:50;6.68;;;2.85;;
63714;SDS011;49858;48.956;9.076;2023-08-06T12:35:19;4.20;;;2.85;;
63714;SDS011;49858;48.956;9.076;2023-08-06T12:37:48;7.75;;;3.75;;
63714;SDS011;49858;48.956;9.076;2023-08-06T12:40:18;3.80;;;2.63;;
63714;SDS011;49858;48.956;9.076;2023-08-06T12:43:01;5.13;;;3.03;;
63714;SDS011;49858;48.956;9.076;2023-08-06T12:45:29;4.88;;;2.90;;
63714;SDS011;49858;48.956;9.076;2023-08-06T12:47:57;3.33;;;2.08;;
63714;SDS011;49858;48.956;9.076;2023-08-06T12:50:25;4.32;;;2.60;;
63714;SDS011;49858;48.956;9.076;2023-08-06T12:52:55;3.42;;;1.77;;
63714;SDS011;49858;48.956;9.076;2023-08-06T12:55:24;1.55;;;0.88;;
63714;SDS011;49858;48.956;9.076;2023-08-06T12:57:53;4.47;;;2.28;;
63714;SDS011;49858;48.956;9.076;2023-08-06T13:00:24;3.97;;;2.03;;
63714;SDS011;49858;48.956;9.076;2023-08-06T13:02:53;2.85;;;1.83;;
63714;SDS011;49858;48.956;9.076;2023-08-06T13:05:23;5.13;;;1.65;;
63714;SDS011;49858;48.956;9.076;2023-08-06T13:07:51;3.00;;;1.85;;
63714;SDS011;49858;48.956;9.076;2023-08-06T13:10:21;3.25;;;2.03;;
63714;SDS011;49858;48.956;9.076;2023-08-06T13:12:50;3.58;;;1.92;;
63714;SDS011;49858;48.956;9.076;2023-08-06T13:15:18;5.03;;;1.90;;
63714;SDS011;49858;48.956;9.076;2023-08-06T13:17:49;4.13;;;1.40;;
63714;SDS011;49858;48.956;9.076;2023-08-06T13:20:16;8.77;;;1.70;;
63714;SDS011;49858;48.956;9.076;2023-08-06T13:22:46;1.45;;;1.05;;
63714;SDS011;49858;48.956;9.076;2023-08-06T13:25:17;3.15;;;1.60;;
63714;SDS011;49858;48.956;9.076;2023-08-06T13:27:50;2.42;;;1.75;;
63714;SDS011;49858;48.956;9.076;2023-08-06T13:30:18;3.03;;;1.30;;
63714;SDS011;49858;48.956;9.076;2023-08-06T13:32:46;1.63;;;1.20;;
63714;SDS011;49858;48.956;9.076;2023-08-06T13:35:17;1.48;;;1.00;;
63714;SDS011;49858;48.956;9.076;2023-08-06T13:37:45;1.50;;;1.05;;
63714;SDS011;49858;48.956;9.076;2023-08-06T13:40:14;2.10;;;1.13;;
63714;SDS011;49858;48.956;9.076;2023-08-06T13:42:42;2.10;;;1.10;;
63714;SDS011;49858;48.956;9.076;2023-08-06T13:45:12;1.02;;;0.65;;
63714;SDS011;49858;48.956;9.076;2023-08-06T13:47:41;0.98;;;0.55;;
63714;SDS011;49858;48.956;9.076;2023-08-06T13:50:09;0.93;;;0.77;;
63714;SDS011;49858;48.956;9.076;2023-08-06T13:52:37;1.48;;;0.90;;
63714;SDS011;49858;48.956;9.076;2023-08-06T13:55:05;1.67;;;0.90;;
63714;SDS011;49858;48.956;9.076;2023-08-06T13:57:36;1.77;;;1.20;;
63714;SDS011;49858;48.956;9.076;2023-08-06T14:00:04;1.10;;;0.70;;
63714;SDS011;49858;48.956;9.076;2023-08-06T14:02:42;2.05;;;1.30;;
63714;SDS011;49858;48.956;9.076;2023-08-06T14:05:11;1.38;;;0.70;;
63714;SDS011;49858;48.956;9.076;2023-08-06T14:07:39;1.17;;;1.00;;
63714;SDS011;49858;48.956;9.076;2023-08-06T14:10:07;3.25;;;0.98;;
63714;SDS011;49858;48.956;9.076;2023-08-06T14:12:35;1.15;;;0.88;;
63714;SDS011;49858;48.956;9.076;2023-08-06T14:15:03;1.15;;;0.80;;
63714;SDS011;49858;48.956;9.076;2023-08-06T14:17:31;3.15;;;0.80;;
63714;SDS011;49858;48.956;9.076;2023-08-06T14:20:03;0.28;;;0.28;;
63714;SDS011;49858;48.956;9.076;2023-08-06T14:22:35;1.17;;;0.80;;
63714;SDS011;49858;48.956;9.076;2023-08-06T14:25:05;0.75;;;0.70;;
63714;SDS011;49858;48.956;9.076;2023-08-06T14:27:34;1.58;;;0.80;;
63714;SDS011;49858;48.956;9.076;2023-08-06T14:30:02;1.30;;;0.82;;
63714;SDS011;49858;48.956;9.076;2023-08-06T14:32:31;1.58;;;0.50;;
63714;SDS011;49858;48.956;9.076;2023-08-06T14:34:59;0.68;;;0.60;;
63714;SDS011;49858;48.956;9.076;2023-08-06T14:37:28;37.15;;;1.20;;
63714;SDS011;49858;48.956;9.076;2023-08-06T14:39:56;0.80;;;0.80;;
63714;SDS011;49858;48.956;9.076;2023-08-06T14:42:24;0.52;;;0.50;;
63714;SDS011;49858;48.956;9.076;2023-08-06T14:44:51;3.28;;;0.80;;
63714;SDS011;49858;48.956;9.076;2023-08-06T14:47:19;3.50;;;0.95;;
63714;SDS011;49858;48.956;9.076;2023-08-06T14:49:48;1.45;;;0.63;;
63714;SDS011;49858;48.956;9.076;2023-08-06T14:52:17;1.38;;;0.88;;
63714;SDS011;49858;48.956;9.076;2023-08-06T14:54:46;1.80;;;0.88;;
63714;SDS011;49858;48.956;9.076;2023-08-06T14:57:14;1.50;;;0.82;;
63714;SDS011;49858;48.956;9.076;2023-08-06T14:59:42;0.82;;;0.50;;
63714;SDS011;49858;48.956;9.076;2023-08-06T15:02:10;0.88;;;0.80;;
63714;SDS011;49858;48.956;9.076;2023-08-06T15:04:38;2.50;;;1.25;;
63714;SDS011;49858;48.956;9.076;2023-08-06T15:07:05;1.33;;;0.90;;
63714;SDS011;49858;48.956;9.076;2023-08-06T15:09:38;1.45;;;0.93;;
63714;SDS011;49858;48.956;9.076;2023-08-06T15:12:27;1.25;;;0.70;;
63714;SDS011;49858;48.956;9.076;2023-08-06T15:14:55;1.58;;;0.93;;
63714;SDS011;49858;48.956;9.076;2023-08-06T15:17:24;2.35;;;1.27;;
63714;SDS011;49858;48.956;9.076;2023-08-06T15:19:53;2.30;;;1.08;;
63714;SDS011;49858;48.956;9.076;2023-08-06T15:22:22;1.83;;;1.20;;
63714;SDS011;49858;48.956;9.076;2023-08-06T15:24:49;1.17;;;0.98;;
63714;SDS011;49858;48.956;9.076;2023-08-06T15:27:17;1.42;;;1.00;;
63714;SDS011;49858;48.956;9.076;2023-08-06T15:29:48;0.93;;;0.63;;
63714;SDS011;49858;48.956;9.076;2023-08-06T15:32:19;2.33;;;0.85;;
63714;SDS011;49858;48.956;9.076;2023-08-06T15:34:48;2.15;;;1.23;;
63714;SDS011;49858;48.956;9.076;2023-08-06T15:37:22;0.93;;;0.73;;
63714;SDS011;49858;48.956;9.076;2023-08-06T15:39:53;2.08;;;0.95;;
63714;SDS011;49858;48.956;9.076;2023-08-06T15:42:21;1.80;;;1.02;;
63714;SDS011;49858;48.956;9.076;2023-08-06T15:44:50;1.65;;;1.17;;
63714;SDS011;49858;48.956;9.076;2023-08-06T15:47:18;0.95;;;0.70;;
63714;SDS011;49858;48.956;9.076;2023-08-06T15:49:46;2.05;;;1.25;;
63714;SDS011;49858;48.956;9.076;2023-08-06T15:52:14;0.73;;;0.68;;
63714;SDS011;49858;48.956;9.076;2023-08-06T15:54:43;1.40;;;0.90;;